Time;durP1;ratioP1;P1;durP2;ratioP2;P2;SDS_P1;SDS_P2;PMS_P1;PMS_P2;Temp;Humidity;BMP_temperature;BMP_pressure;BME280_temperature;BME280_humidity;BME280_pressure;Samples;Min_cycle;Max_cycle;Signal;HPM_P1;HPM_P2
2022/05/27 00:02:19;;;;;;;4.32;4.03;;;;;;;29.31;54.84;100520.63;5082094;28;66070;-38
2022/05/27 00:04:50;;;;;;;6.82;4.40;;;;;;;29.34;54.75;100520.19;5080413;28;69295;-41
2022/05/27 00:07:21;;;;;;;5.40;3.83;;;;;;;29.36;55.29;100523.50;5064677;28;65983;-37
2022/05/27 00:09:52;;;;;;;4.57;4.03;;;;;;;29.44;54.99;100518.88;5080579;28;69803;-38
2022/05/27 00:12:23;;;;;;;4.35;4.05;;;;;;;29.47;55.72;100521.13;5076052;28;67188;-35
2022/05/27 00:14:54;;;;;;;18.05;7.70;;;;;;;29.57;61.19;100519.59;5059586;28;69023;-36
2022/05/27 00:17:26;;;;;;;9.68;8.70;;;;;;;29.66;63.98;100522.06;5081456;27;65357;-36
2022/05/27 00:19:56;;;;;;;14.88;10.00;;;;;;;29.74;66.69;100525.31;5072813;28;70434;-37
2022/05/27 00:22:27;;;;;;;12.73;10.60;;;;;;;29.80;65.88;100520.88;5072127;28;65424;-36
2022/05/27 00:24:58;;;;;;;22.75;12.02;;;;;;;29.83;71.57;100526.66;5080414;28;69776;-35
2022/05/27 00:27:29;;;;;;;21.13;13.70;;;;;;;29.77;74.03;100524.88;5081618;28;66694;-36
2022/05/27 00:29:59;;;;;;;22.15;14.10;;;;;;;29.71;77.04;100520.34;5081516;28;71419;-37
2022/05/27 00:32:31;;;;;;;21.17;14.20;;;;;;;29.64;77.73;100519.56;5075225;28;67415;-34
2022/05/27 00:35:02;;;;;;;22.98;16.52;;;;;;;29.64;77.33;100516.84;5058937;28;70195;-36
2022/05/27 00:37:33;;;;;;;20.13;13.85;;;;;;;29.69;77.74;100511.63;5050907;28;65308;-35
2022/05/27 00:40:05;;;;;;;26.65;13.13;;;;;;;29.67;76.75;100496.66;5056751;28;69322;-36
2022/05/27 00:42:41;;;;;;;15.32;13.05;;;;;;;29.73;76.20;100507.44;5060614;28;66013;-36
2022/05/27 00:45:18;;;;;;;15.77;13.10;;;;;;;29.57;76.67;100464.72;5064349;28;70581;-36
2022/05/27 00:47:52;;;;;;;16.25;11.57;;;;;;;29.89;75.88;100489.81;5066908;28;66057;-37
2022/05/27 00:50:33;;;;;;;19.05;11.93;;;;;;;29.97;75.86;100500.34;5070784;28;70346;-37
2022/05/27 00:53:06;;;;;;;17.70;11.77;;;;;;;30.08;74.84;100506.88;5067419;28;66263;-37
2022/05/27 00:55:46;;;;;;;19.15;12.27;;;;;;;30.05;74.99;100493.81;5066822;28;70212;-37
2022/05/27 00:58:27;;;;;;;27.75;12.13;;;;;;;30.04;74.28;100489.47;5046011;28;66230;-37
2022/05/27 01:00:59;;;;;;;25.48;12.25;;;;;;;30.18;74.24;100499.09;5042952;28;69687;-37
2022/05/27 01:03:31;;;;;;;29.05;13.82;;;;;;;30.20;76.31;100502.41;5075305;28;66883;-35
2022/05/27 01:06:02;;;;;;;28.38;15.43;;;;;;;30.19;77.03;100506.16;5076519;28;70197;-35
2022/05/27 01:08:34;;;;;;;22.25;14.15;;;;;;;30.20;76.86;100507.81;5064042;28;66949;-35
2022/05/27 01:11:23;;;;;;;32.38;16.50;;;;;;;30.16;78.14;100495.78;5056201;28;70263;-35
2022/05/27 01:13:57;;;;;;;29.50;14.43;;;;;;;30.16;78.73;100501.19;5075258;28;66498;-35
2022/05/27 01:16:45;;;;;;;22.17;13.20;;;;;;;30.10;79.99;100485.84;5076385;28;69589;-35
2022/05/27 01:22:39;;;;;;;28.58;14.77;;;;;;;30.17;79.55;100497.44;5077171;28;68933;-35
2022/05/27 01:25:48;;;;;;;32.00;14.75;;;;;;;30.13;79.89;100496.22;5070062;28;65437;-36
2022/05/27 01:28:39;;;;;;;27.90;15.63;;;;;;;30.27;79.07;100505.06;5076144;28;69777;-36
2022/05/27 01:31:10;;;;;;;30.55;14.95;;;;;;;30.28;79.52;100509.41;5076810;27;66164;-37
2022/05/27 01:34:15;;;;;;;23.15;13.77;;;;;;;30.29;78.52;100516.50;5080264;28;71976;-36
2022/05/27 01:37:05;;;;;;;16.95;12.07;;;;;;;30.31;78.01;100518.97;5090245;27;66037;-36
2022/05/27 01:39:53;;;;;;;20.10;12.02;;;;;;;30.40;77.88;100518.44;5074410;28;70235;-36
2022/05/27 01:42:33;;;;;;;13.82;11.05;;;;;;;30.50;77.63;100517.91;5073565;28;66615;-37
2022/05/27 01:45:12;;;;;;;22.50;11.45;;;;;;;30.56;77.25;100516.16;5038737;28;68825;-36
2022/05/27 01:48:06;;;;;;;15.50;10.90;;;;;;;30.46;77.09;100519.41;5068931;28;65485;-36
2022/05/27 01:50:42;;;;;;;18.70;11.15;;;;;;;30.20;77.40;100464.53;5078750;28;69432;-37
2022/05/27 01:53:42;;;;;;;18.23;10.57;;;;;;;30.63;76.55;100522.34;5060348;28;66155;-37
2022/05/27 01:56:46;;;;;;;16.25;9.77;;;;;;;30.54;77.04;100538.06;4991215;28;70460;-37
2022/05/27 01:59:28;;;;;;;11.95;9.63;;;;;;;30.30;76.74;100472.13;5060757;28;65687;-37
2022/05/27 02:02:18;;;;;;;12.73;10.35;;;;;;;30.71;76.70;100541.81;5067113;28;70027;-37
2022/05/27 02:04:58;;;;;;;19.52;10.02;;;;;;;30.70;76.84;100542.03;5068898;28;65878;-36
2022/05/27 02:07:43;;;;;;;14.43;9.88;;;;;;;30.39;76.77;100484.31;5073933;27;69583;-36
2022/05/27 02:10:20;;;;;;;18.27;10.50;;;;;;;30.83;76.30;100549.19;5065976;28;66281;-36
2022/05/27 02:13:22;;;;;;;15.65;10.18;;;;;;;30.84;76.10;100551.69;5063225;28;70230;-37
2022/05/27 02:15:55;;;;;;;14.93;11.07;;;;;;;30.85;76.03;100557.94;5034794;27;66246;-37
2022/05/27 02:18:42;;;;;;;17.27;10.65;;;;;;;30.88;75.76;100573.72;5071338;27;69624;-36
2022/05/27 02:21:23;;;;;;;15.57;9.40;;;;;;;30.88;76.12;100573.72;5068981;27;66272;-36
2022/05/27 02:24:09;;;;;;;13.83;10.30;;;;;;;30.95;76.17;100571.72;5071590;28;69012;-36
2022/05/27 02:26:46;;;;;;;18.33;10.50;;;;;;;30.72;75.82;100531.78;5048847;28;65939;-37
2022/05/27 02:29:22;;;;;;;12.70;10.05;;;;;;;30.94;75.64;100578.22;5056549;28;69625;-36
2022/05/27 02:31:57;;;;;;;11.45;9.15;;;;;;;31.05;75.71;100601.81;5065115;28;65933;-37
2022/05/27 02:37:31;;;;;;;17.63;10.90;;;;;;;31.08;75.50;100601.38;5064070;28;66669;-37
2022/05/27 02:40:06;;;;;;;12.38;9.57;;;;;;;31.06;75.64;100595.34;5070481;27;70452;-37
2022/05/27 02:42:48;;;;;;;12.90;9.70;;;;;;;31.11;75.05;100584.66;5067211;28;65486;-37
2022/05/27 02:45:39;;;;;;;12.38;10.25;;;;;;;31.13;74.67;100587.97;5072537;28;68868;-37
2022/05/27 02:48:45;;;;;;;15.50;10.63;;;;;;;31.03;74.84;100584.97;5063678;28;66625;-37
2022/05/27 02:51:29;;;;;;;16.45;10.05;;;;;;;31.09;75.31;100584.06;5049535;28;70301;-37
2022/05/27 02:54:17;;;;;;;12.88;9.98;;;;;;;31.13;75.14;100585.25;5075252;28;66720;-37
2022/05/27 02:57:10;;;;;;;12.35;9.40;;;;;;;30.82;75.21;100531.31;5054030;28;69981;-37
2022/05/27 02:59:42;;;;;;;13.98;9.98;;;;;;;30.82;74.95;100525.88;5042113;28;66145;-38
2022/05/27 03:02:16;;;;;;;16.15;10.50;;;;;;;30.93;74.85;100544.06;5065670;27;70813;-38
2022/05/27 03:04:51;;;;;;;10.25;9.35;;;;;;;31.24;74.68;100572.00;5082582;27;66849;-37
2022/05/27 03:07:44;;;;;;;18.88;10.15;;;;;;;31.30;74.41;100580.00;5054488;28;70145;-37
2022/05/27 03:10:29;;;;;;;10.38;9.23;;;;;;;31.04;74.85;100532.47;5060745;28;66667;-37
2022/05/27 03:13:42;;;;;;;10.65;9.35;;;;;;;31.24;74.83;100577.41;5063453;27;70539;-37
2022/05/27 03:16:44;;;;;;;20.40;9.90;;;;;;;31.34;74.49;100567.66;5060123;28;65924;-37
2022/05/27 03:19:32;;;;;;;13.00;9.05;;;;;;;31.30;74.41;100561.03;5005945;28;70127;-37
2022/05/27 03:22:38;;;;;;;10.80;8.18;;;;;;;31.07;74.31;100518.44;5052154;28;65647;-36
2022/05/27 03:25:18;;;;;;;10.23;9.15;;;;;;;31.03;74.39;100502.88;5048904;28;69560;-37
2022/05/27 03:28:06;;;;;;;14.07;8.85;;;;;;;31.40;73.92;100568.66;5057437;28;65756;-38
2022/05/27 03:30:48;;;;;;;11.82;8.90;;;;;;;31.41;74.02;100555.94;5057759;28;69697;-36
2022/05/27 03:33:30;;;;;;;9.53;8.63;;;;;;;31.42;74.03;100563.81;5065372;28;65476;-36
2022/05/27 03:36:18;;;;;;;11.23;8.60;;;;;;;31.44;74.22;100567.13;5078021;28;69998;-36
2022/05/27 03:39:13;;;;;;;9.18;8.18;;;;;;;31.44;74.30;100559.00;5077336;28;66549;-37
2022/05/27 03:41:54;;;;;;;9.75;8.60;;;;;;;31.53;73.67;100559.47;5070693;28;70431;-37
2022/05/27 03:44:27;;;;;;;13.20;8.07;;;;;;;31.56;73.58;100557.13;5076855;28;65667;-37
2022/05/27 03:46:59;;;;;;;9.93;7.90;;;;;;;31.49;73.80;100529.31;5074619;28;70106;-38
2022/05/27 03:49:30;;;;;;;8.43;7.45;;;;;;;31.60;73.59;100533.94;5097654;27;64725;-37
2022/05/27 03:52:13;;;;;;;8.75;7.68;;;;;;;31.64;73.70;100528.03;5088640;27;69924;-37
2022/05/27 03:54:44;;;;;;;11.20;7.82;;;;;;;31.63;73.50;100510.13;5066922;27;66780;-38
2022/05/27 03:57:15;;;;;;;13.38;7.75;;;;;;;31.70;73.18;100506.22;5075959;28;70269;-38
2022/05/27 03:59:45;;;;;;;9.85;7.20;;;;;;;31.70;73.39;100519.78;5076441;28;66300;-38
2022/05/27 04:02:16;;;;;;;9.40;6.95;;;;;;;31.76;73.35;100510.72;5057685;28;69974;-38
2022/05/27 04:04:47;;;;;;;8.60;7.25;;;;;;;31.76;73.29;100509.88;5060696;28;65934;-38
2022/05/27 04:07:18;;;;;;;9.98;7.10;;;;;;;31.79;73.54;100515.69;5058327;28;69213;-37
2022/05/27 04:09:49;;;;;;;8.43;7.13;;;;;;;31.81;73.23;100507.28;5070102;28;66328;-37
2022/05/27 04:12:21;;;;;;;7.35;6.20;;;;;;;31.75;73.25;100491.97;5077091;28;70117;-37
2022/05/27 04:14:52;;;;;;;6.80;6.18;;;;;;;31.87;73.19;100492.78;5075799;28;66054;-37
2022/05/27 04:17:32;;;;;;;9.80;6.88;;;;;;;31.92;72.66;100487.50;5058140;28;70494;-37
2022/05/27 04:20:10;;;;;;;7.50;6.32;;;;;;;31.85;72.72;100470.50;5070325;28;65654;-38
2022/05/27 04:22:41;;;;;;;6.43;5.82;;;;;;;31.94;72.65;100468.28;5042279;28;69833;-37
2022/05/27 04:25:15;;;;;;;9.85;5.78;;;;;;;31.58;72.71;100405.09;5077139;28;66002;-38
2022/05/27 04:27:46;;;;;;;9.00;6.07;;;;;;;32.01;72.53;100464.41;5056313;28;69843;-38
2022/05/27 04:30:17;;;;;;;9.30;6.22;;;;;;;31.98;72.66;100461.31;5074088;28;66154;-37
2022/05/27 04:32:47;;;;;;;6.20;5.60;;;;;;;31.93;72.67;100450.34;5071753;28;70174;-38
2022/05/27 04:35:19;;;;;;;7.10;5.90;;;;;;;32.09;72.11;100456.94;5077638;28;66724;-37
2022/05/27 04:37:49;;;;;;;7.80;5.65;;;;;;;32.07;72.24;100462.63;5077446;28;70393;-37
2022/05/27 04:40:21;;;;;;;6.70;5.78;;;;;;;32.05;72.14;100449.28;5076613;28;66498;-36
2022/05/27 04:42:51;;;;;;;5.50;5.10;;;;;;;32.11;72.09;100433.13;5077911;28;70711;-36
2022/05/27 04:45:23;;;;;;;7.32;6.15;;;;;;;32.13;72.29;100425.56;5077748;28;66293;-36
2022/05/27 04:47:53;;;;;;;8.20;5.85;;;;;;;32.17;72.04;100434.84;5065601;28;69056;-37
2022/05/27 04:50:25;;;;;;;7.03;5.85;;;;;;;32.07;70.44;100423.78;5063552;28;66417;-37
2022/05/27 04:52:55;;;;;;;9.52;4.78;;;;;;;31.94;68.31;100425.72;5067987;28;69609;-37
2022/05/27 04:55:26;;;;;;;5.28;4.88;;;;;;;31.88;66.46;100421.22;5048028;28;66214;-36
2022/05/27 04:57:59;;;;;;;5.35;4.90;;;;;;;31.73;64.73;100418.16;5068200;28;69787;-38
2022/05/27 05:00:34;;;;;;;5.00;4.47;;;;;;;31.66;63.03;100409.31;5048037;28;65172;-37
2022/05/27 05:03:05;;;;;;;6.40;4.63;;;;;;;31.46;61.73;100388.00;5065968;27;69266;-38
2022/05/27 05:05:37;;;;;;;6.83;4.40;;;;;;;31.46;60.32;100396.97;5045565;28;66659;-38
2022/05/27 05:08:15;;;;;;;4.53;4.13;;;;;;;31.25;59.01;100373.09;5066278;28;70142;-37
2022/05/27 05:10:45;;;;;;;10.90;4.88;;;;;;;31.30;58.73;100386.78;5070289;28;66593;-38
2022/05/27 05:13:17;;;;;;;7.13;3.53;;;;;;;31.26;57.95;100381.03;5067107;28;69804;-38
2022/05/27 05:15:48;;;;;;;5.22;3.80;;;;;;;31.20;57.11;100381.13;5066089;28;66398;-37
2022/05/27 05:18:18;;;;;;;4.38;3.97;;;;;;;31.16;55.99;100389.72;5057051;28;70113;-36
2022/05/27 05:20:50;;;;;;;4.57;3.60;;;;;;;31.07;55.46;100377.59;5061902;28;66653;-37
2022/05/27 05:23:20;;;;;;;3.90;3.60;;;;;;;31.07;55.34;100372.16;5057693;28;70029;-37
2022/05/27 05:25:51;;;;;;;9.43;3.45;;;;;;;31.06;55.14;100366.97;5072781;28;66438;-37
2022/05/27 05:28:22;;;;;;;6.43;3.25;;;;;;;30.98;53.70;100351.91;5049826;28;71142;-37
2022/05/27 05:30:53;;;;;;;3.35;3.00;;;;;;;30.89;54.53;100332.44;5064284;27;65661;-36
2022/05/27 05:33:23;;;;;;;3.35;2.88;;;;;;;30.95;53.53;100352.34;5069382;28;70172;-38
2022/05/27 05:35:55;;;;;;;3.08;2.85;;;;;;;30.96;52.79;100326.13;5061132;28;66249;-38
2022/05/27 05:38:27;;;;;;;3.47;2.78;;;;;;;30.90;52.04;100334.09;5068485;28;70754;-37
2022/05/27 05:40:58;;;;;;;4.13;2.90;;;;;;;30.87;52.06;100321.03;5029884;28;65511;-37
2022/05/27 05:43:29;;;;;;;3.13;2.80;;;;;;;30.88;51.33;100311.84;5068065;28;69888;-38
2022/05/27 05:46:00;;;;;;;3.25;2.95;;;;;;;30.84;51.06;100318.78;5053557;28;66247;-38
2022/05/27 05:48:31;;;;;;;5.20;3.15;;;;;;;30.84;51.06;100307.97;5068257;28;69949;-37
2022/05/27 05:51:01;;;;;;;3.10;2.53;;;;;;;30.83;50.40;100316.31;5050689;28;66497;-37
2022/05/27 05:53:32;;;;;;;2.47;2.20;;;;;;;30.81;50.83;100307.59;5051571;28;69931;-38
2022/05/27 05:56:03;;;;;;;4.45;1.95;;;;;;;30.84;50.10;100307.97;5064869;28;65643;-38
2022/05/27 05:58:34;;;;;;;7.47;2.13;;;;;;;30.84;49.45;100307.13;5062387;28;70213;-37
2022/05/27 06:01:05;;;;;;;4.05;2.13;;;;;;;30.89;49.28;100309.94;5060306;28;66613;-38
2022/05/27 06:03:36;;;;;;;2.88;2.40;;;;;;;30.85;49.17;100303.38;5069436;28;70198;-38
2022/05/27 06:06:06;;;;;;;6.07;2.20;;;;;;;30.86;48.74;100292.28;5068996;28;65405;-37
2022/05/27 06:08:37;;;;;;;2.60;2.20;;;;;;;30.91;48.99;100297.84;5058102;28;69994;-37
2022/05/27 06:11:08;;;;;;;3.95;1.52;;;;;;;30.84;48.80;100293.56;5075613;28;66781;-37
2022/05/27 06:13:42;;;;;;;8.00;2.00;;;;;;;30.89;48.46;100293.69;5074156;28;70031;-37
2022/05/27 06:16:13;;;;;;;2.95;1.83;;;;;;;30.84;47.45;100290.88;5077424;27;65447;-37
2022/05/27 06:18:45;;;;;;;2.63;1.98;;;;;;;30.84;47.65;100293.56;5079740;28;70195;-37
2022/05/27 06:21:16;;;;;;;;;;;;;;;30.55;47.91;100287.97;5079790;28;66672;-38
2022/05/27 06:23:46;;;;;;;1.83;1.63;;;;;;;30.81;47.76;100280.50;5062584;28;68978;-37
2022/05/27 06:26:17;;;;;;;3.42;2.05;;;;;;;30.85;47.62;100273.59;5060076;28;66485;-37
2022/05/27 06:34:27;;;;;;;2.47;2.00;;;;;;;30.75;46.61;100236.22;5068045;28;70665;-38
2022/05/27 06:37:08;;;;;;;8.70;2.57;;;;;;;30.78;46.53;100229.50;5042524;28;66432;-36
2022/05/27 06:39:40;;;;;;;2.67;1.83;;;;;;;30.78;46.24;100226.78;5067851;28;69257;-37
2022/05/27 06:42:12;;;;;;;2.70;1.57;;;;;;;30.54;45.88;100183.50;5075020;28;65795;-36
2022/05/27 06:45:06;;;;;;;2.30;1.85;;;;;;;30.56;46.34;100192.19;5071226;28;70275;-38
2022/05/27 06:47:38;;;;;;;2.60;1.80;;;;;;;30.78;45.98;100221.38;5068858;28;65992;-38
2022/05/27 06:50:09;;;;;;;;;;;;;;;30.48;46.51;100225.03;5068849;28;69796;-37
2022/05/27 06:52:41;;;;;;;4.00;1.88;;;;;;;30.79;46.84;100206.81;5071666;28;66398;-37
2022/05/27 06:55:14;;;;;;;2.03;1.60;;;;;;;30.59;45.85;100159.25;5038168;28;69307;-37
2022/05/27 06:57:45;;;;;;;1.83;1.60;;;;;;;30.80;46.09;100186.81;5069667;28;66359;-37
2022/05/27 07:00:17;;;;;;;5.23;2.10;;;;;;;30.85;46.31;100195.06;5028785;28;70449;-45
2022/05/27 07:02:48;;;;;;;3.67;2.65;;;;;;;30.77;46.64;100179.13;5072503;28;66235;-37
2022/05/27 07:05:19;;;;;;;3.55;1.80;;;;;;;30.87;46.26;100191.06;5046723;28;70318;-37
2022/05/27 07:07:50;;;;;;;5.35;2.03;;;;;;;30.87;46.56;100180.22;5075260;28;66380;-37
2022/05/27 07:10:21;;;;;;;2.85;2.17;;;;;;;30.91;47.21;100177.84;5078868;28;70334;-37
2022/05/27 07:12:59;;;;;;;5.80;2.50;;;;;;;30.96;48.17;100174.44;5075452;28;66467;-37
2022/05/27 07:15:30;;;;;;;4.57;2.88;;;;;;;30.99;47.79;100166.66;5058238;28;69968;-37
2022/05/27 07:18:04;;;;;;;3.42;2.13;;;;;;;30.98;47.10;100167.72;5059250;28;65899;-38
2022/05/27 07:20:36;;;;;;;4.05;2.63;;;;;;;31.01;46.87;100178.09;5072004;28;70432;-37
2022/05/27 07:23:08;;;;;;;3.85;2.40;;;;;;;31.04;47.55;100165.94;5057240;28;65945;-36
2022/05/27 07:25:40;;;;;;;6.97;2.30;;;;;;;31.00;47.66;100171.00;5078528;27;69506;-38
2022/05/27 07:28:12;;;;;;;4.60;2.25;;;;;;;31.01;47.42;100166.41;5077639;28;66312;-38
2022/05/27 07:30:43;;;;;;;7.10;2.88;;;;;;;31.05;46.81;100157.56;5078487;27;70570;-37
2022/05/27 07:33:14;;;;;;;4.38;2.50;;;;;;;31.06;50.64;100166.50;5099033;27;65526;-38
2022/05/27 07:35:45;;;;;;;5.90;2.40;;;;;;;31.02;50.11;100149.09;5094496;27;71037;-39
2022/05/27 07:38:17;;;;;;;4.13;2.88;;;;;;;31.11;49.00;100177.47;5063225;28;66689;-37
2022/05/27 07:40:47;;;;;;;3.88;2.45;;;;;;;31.07;48.82;100192.56;5077966;28;70033;-38
2022/05/27 07:43:19;;;;;;;5.20;2.47;;;;;;;31.05;47.70;100200.91;5068883;28;66122;-39
2022/05/27 07:45:50;;;;;;;4.00;2.80;;;;;;;31.03;47.54;100224.69;5051550;27;68898;-39
2022/05/27 07:48:22;;;;;;;3.90;2.60;;;;;;;31.01;47.15;100216.00;5079353;27;66566;-37
2022/05/27 07:50:54;;;;;;;2.83;2.30;;;;;;;30.96;46.97;100213.19;5096396;27;69258;-38
2022/05/27 07:53:25;;;;;;;3.88;2.65;;;;;;;30.94;46.99;100212.59;5043219;28;65975;-37
2022/05/27 07:55:56;;;;;;;3.35;2.67;;;;;;;30.93;46.34;100225.31;5065240;28;70155;-38
2022/05/27 07:58:26;;;;;;;4.15;2.45;;;;;;;30.92;46.58;100230.94;5068778;28;65604;-37
2022/05/27 08:00:57;;;;;;;3.25;2.08;;;;;;;30.88;46.72;100227.06;5058759;28;69414;-37
2022/05/27 08:03:28;;;;;;;4.72;2.75;;;;;;;30.88;46.51;100232.50;5058365;28;66194;-38
2022/05/27 08:06:00;;;;;;;3.92;2.47;;;;;;;30.88;46.30;100229.78;5064841;28;70158;-48
2022/05/27 08:08:31;;;;;;;5.32;2.58;;;;;;;30.73;45.97;100203.97;5098819;27;65763;-38
2022/05/27 08:11:02;;;;;;;5.00;2.70;;;;;;;30.76;46.29;100202.69;5084316;27;69989;-37
2022/05/27 08:13:33;;;;;;;2.83;2.28;;;;;;;30.75;46.14;100221.84;5078346;28;65520;-38
2022/05/27 08:16:05;;;;;;;3.03;2.50;;;;;;;30.71;45.61;100222.31;5038552;28;70098;-36
2022/05/27 08:18:37;;;;;;;4.60;2.45;;;;;;;30.71;45.79;100233.16;5037883;28;65307;-37
2022/05/27 08:21:11;;;;;;;4.40;2.80;;;;;;;30.70;45.79;100236.94;5057571;28;69166;-37
2022/05/27 08:23:42;;;;;;;3.53;2.80;;;;;;;30.64;45.11;100232.44;5070816;28;66045;-37
2022/05/27 08:26:13;;;;;;;2.80;2.42;;;;;;;30.66;45.44;100230.31;5052004;28;69898;-37
2022/05/27 08:28:44;;;;;;;3.85;2.58;;;;;;;30.57;45.02;100220.91;5070531;28;66274;-38
2022/05/27 08:31:16;;;;;;;3.22;2.80;;;;;;;30.60;44.84;100233.97;5037875;28;69068;-38
2022/05/27 08:39:26;;;;;;;5.10;2.40;;;;;;;30.54;44.27;100223.28;5065870;28;66101;-37
2022/05/27 08:42:18;;;;;;;5.63;2.50;;;;;;;30.49;44.20;100224.78;5069224;28;70321;-37
2022/05/27 08:45:15;;;;;;;4.00;2.15;;;;;;;30.22;44.02;100181.09;5060892;28;65972;-38
2022/05/27 08:47:52;;;;;;;5.32;2.55;;;;;;;30.10;44.01;100155.88;5049308;28;70281;-37
2022/05/27 08:50:32;;;;;;;3.78;2.47;;;;;;;30.40;44.21;100219.97;5059244;28;66192;-37
2022/05/27 08:53:31;;;;;;;4.75;2.45;;;;;;;30.33;44.03;100230.03;5072763;28;70165;-38
2022/05/27 08:59:27;;;;;;;10.50;3.38;;;;;;;30.55;57.47;100225.72;5076983;28;70303;-37
2022/05/27 09:02:25;;;;;;;5.40;3.35;;;;;;;30.86;59.70;100232.72;5075262;28;66131;-38
2022/05/27 09:05:05;;;;;;;14.05;3.75;;;;;;;31.01;61.07;100231.41;5062617;28;70599;-37
2022/05/27 09:07:55;;;;;;;8.43;3.90;;;;;;;30.76;61.89;100180.16;5065220;28;66324;-37
2022/05/27 09:10:39;;;;;;;9.75;3.80;;;;;;;31.22;63.09;100216.44;5070976;28;69662;-38
2022/05/27 09:13:28;;;;;;;11.23;4.50;;;;;;;31.28;63.48;100220.88;5073597;28;66183;-38
2022/05/27 09:16:11;;;;;;;9.35;4.43;;;;;;;31.40;63.60;100219.03;5062284;28;69932;-38
2022/05/27 09:19:17;;;;;;;12.35;4.20;;;;;;;31.39;63.89;100218.19;5053884;28;66016;-38
2022/05/27 09:22:13;;;;;;;7.57;4.47;;;;;;;31.44;64.30;100225.59;5059222;28;70325;-38
2022/05/27 09:25:10;;;;;;;5.45;4.35;;;;;;;31.58;64.61;100216.13;5076171;28;65702;-37
2022/05/27 09:27:59;;;;;;;7.50;4.35;;;;;;;31.57;64.81;100222.63;5036226;28;69996;-37
2022/05/27 09:30:35;;;;;;;10.43;4.95;;;;;;;31.67;65.45;100240.16;5054810;28;66784;-38
2022/05/27 09:33:16;;;;;;;7.78;4.50;;;;;;;31.31;65.67;100166.22;5060806;28;70594;-37
2022/05/27 09:35:52;;;;;;;12.05;4.90;;;;;;;31.58;66.18;100205.28;5074460;28;66243;-37
2022/05/27 09:38:27;;;;;;;7.40;5.00;;;;;;;31.68;66.18;100230.94;5037705;28;69024;-37
2022/05/27 09:41:23;;;;;;;9.43;5.35;;;;;;;31.59;66.30;100220.50;5056676;28;66485;-38
2022/05/27 09:44:06;;;;;;;14.55;5.78;;;;;;;31.42;67.37;100199.81;5075378;28;69915;-37
2022/05/27 09:46:38;;;;;;;6.80;4.82;;;;;;;31.76;67.11;100276.66;5067648;28;65488;-38
2022/05/27 09:49:09;;;;;;;8.18;4.93;;;;;;;31.80;67.27;100288.69;5068730;27;70073;-38
2022/05/27 09:51:40;;;;;;;6.30;4.72;;;;;;;31.79;67.93;100297.91;5055331;28;65377;-36
2022/05/27 09:54:24;;;;;;;8.38;5.30;;;;;;;31.79;67.73;100309.56;5077113;27;70271;-37
2022/05/27 09:57:10;;;;;;;9.88;5.03;;;;;;;31.86;68.23;100298.56;5083954;27;66159;-37
2022/05/27 09:59:44;;;;;;;6.25;4.60;;;;;;;31.50;67.88;100235.47;5064505;28;70161;-38
2022/05/27 10:02:20;;;;;;;7.88;5.13;;;;;;;31.89;68.32;100299.97;5067039;28;66644;-38
2022/05/27 10:04:53;;;;;;;7.20;4.97;;;;;;;31.86;68.42;100336.53;5066424;28;70467;-38
2022/05/27 10:07:39;;;;;;;7.88;5.30;;;;;;;31.86;68.74;100357.41;5074402;28;65565;-38
2022/05/27 10:10:19;;;;;;;9.68;5.25;;;;;;;31.87;69.07;100376.16;5074773;28;70654;-37
2022/05/27 10:12:51;;;;;;;7.95;5.45;;;;;;;31.79;69.17;100365.69;5043265;28;66206;-38
2022/05/27 10:15:30;;;;;;;8.35;4.93;;;;;;;31.82;69.42;100381.47;5040784;28;68989;-38
2022/05/27 10:18:25;;;;;;;13.90;5.85;;;;;;;31.50;69.42;100338.47;5022492;28;66237;-37
2022/05/27 10:21:02;;;;;;;20.33;6.65;;;;;;;31.46;69.44;100323.78;5043695;28;70023;-38
2022/05/27 10:23:41;;;;;;;10.90;6.30;;;;;;;31.63;69.84;100369.13;5073215;27;66574;-38
2022/05/27 10:26:25;;;;;;;11.93;6.00;;;;;;;31.80;70.16;100418.84;5010901;27;69223;-38
2022/05/27 10:29:06;;;;;;;13.57;6.30;;;;;;;31.80;69.89;100435.13;5067969;27;66593;-37
2022/05/27 10:31:49;;;;;;;9.23;6.03;;;;;;;31.82;70.34;100449.28;5015352;28;69319;-37
2022/05/27 10:34:45;;;;;;;11.27;6.20;;;;;;;31.78;70.29;100465.19;5036775;28;65507;-38
2022/05/27 10:37:37;;;;;;;8.93;6.13;;;;;;;31.76;70.28;100471.91;5040206;28;69891;-37
2022/05/27 10:40:28;;;;;;;14.52;6.90;;;;;;;31.79;70.50;100482.31;5016687;28;65567;-37
2022/05/27 10:43:36;;;;;;;14.43;6.35;;;;;;;31.68;71.05;100492.09;5039948;28;69342;-39
2022/05/27 10:46:15;;;;;;;10.30;6.53;;;;;;;31.82;71.16;100542.31;5024375;28;65431;-38
2022/05/27 10:49:01;;;;;;;13.65;6.90;;;;;;;31.80;71.17;100614.94;5043108;28;69967;-38
2022/05/27 10:52:17;;;;;;;19.80;7.25;;;;;;;31.71;72.63;100608.22;5023793;28;66037;-37
2022/05/27 10:55:08;;;;;;;14.25;7.60;;;;;;;31.80;72.32;100627.69;5051897;28;69891;-39
2022/05/27 11:04:12;;;;;;;14.32;6.78;;;;;;;31.63;73.41;100615.88;5060656;27;66453;-38
2022/05/27 11:06:48;;;;;;;11.55;6.43;;;;;;;31.69;72.65;100617.66;5067902;28;69741;-38
2022/05/27 11:09:26;;;;;;;8.60;5.30;;;;;;;31.33;72.42;100562.47;5068212;28;66233;-38
2022/05/27 11:12:16;;;;;;;9.63;5.90;;;;;;;31.61;72.71;100616.91;5063464;28;70382;-38
2022/05/27 11:17:59;;;;;;;9.30;4.90;;;;;;;31.56;72.40;100592.38;5063676;28;70356;-38
2022/05/27 11:21:07;;;;;;;4.45;4.05;;;;;;;31.44;72.21;100588.81;5061682;28;64807;-38
2022/05/27 11:23:53;;;;;;;8.05;4.75;;;;;;;31.50;72.40;100614.16;5067704;28;69341;-38
2022/05/27 11:26:59;;;;;;;7.95;4.63;;;;;;;31.38;72.68;100611.44;5062848;28;66591;-36
2022/05/27 11:30:07;;;;;;;4.32;3.92;;;;;;;31.34;72.62;100613.75;5061921;28;69442;-38
2022/05/27 11:32:58;;;;;;;5.55;4.15;;;;;;;31.39;72.78;100618.50;5063848;28;65880;-38
2022/05/27 11:35:42;;;;;;;4.05;3.55;;;;;;;31.36;72.35;100624.38;5032165;28;70227;-38
2022/05/27 11:38:42;;;;;;;4.82;3.90;;;;;;;31.03;72.67;100582.25;5067579;28;66178;-38
2022/05/27 11:41:43;;;;;;;4.25;3.85;;;;;;;31.25;72.82;100639.50;5064430;28;69686;-38
2022/05/27 11:44:41;;;;;;;6.22;3.17;;;;;;;31.32;73.26;100628.59;5069346;28;66594;-38
2022/05/27 11:47:50;;;;;;;3.67;3.38;;;;;;;31.34;72.68;100642.72;5068068;28;70206;-40
2022/05/27 11:50:51;;;;;;;8.02;3.60;;;;;;;30.92;72.94;100585.72;4992100;28;65353;-37
2022/05/27 11:53:55;;;;;;;6.38;3.30;;;;;;;31.23;73.06;100646.19;4991680;28;70824;-37
2022/05/27 11:56:26;;;;;;;4.15;3.38;;;;;;;31.26;73.30;100646.59;5033087;28;66391;-40
2022/05/27 11:59:09;;;;;;;3.87;3.57;;;;;;;31.28;72.66;100658.00;5074995;28;70068;-38
2022/05/27 12:01:57;;;;;;;6.88;3.95;;;;;;;31.27;73.13;100650.13;5077947;28;65736;-39
2022/05/27 12:04:40;;;;;;;4.22;3.88;;;;;;;31.18;73.07;100644.19;5067394;28;69728;-38
2022/05/27 12:07:18;;;;;;;5.28;3.67;;;;;;;31.21;72.84;100637.50;5060732;28;65554;-38
2022/05/27 12:10:16;;;;;;;5.90;3.45;;;;;;;31.09;73.18;100640.13;5026360;28;70044;-37
2022/05/27 12:12:57;;;;;;;4.22;3.92;;;;;;;30.89;72.55;100594.31;5022840;28;65260;-37
2022/05/27 12:16:00;;;;;;;4.47;3.87;;;;;;;31.11;72.94;100643.44;5073948;28;69815;-37
2022/05/27 12:18:41;;;;;;;11.13;4.97;;;;;;;31.19;72.83;100661.25;5033989;28;66821;-38
2022/05/27 12:21:20;;;;;;;7.55;3.70;;;;;;;31.19;73.93;100661.25;5041120;28;70215;-37
2022/05/27 12:24:29;;;;;;;9.20;3.83;;;;;;;31.06;73.73;100663.06;5034090;28;67010;-37
2022/05/27 12:27:04;;;;;;;5.75;3.78;;;;;;;31.19;74.00;100661.25;5030752;28;70321;-41
2022/05/27 12:29:40;;;;;;;9.05;3.65;;;;;;;31.20;73.73;100663.72;5027514;28;65320;-42
2022/05/27 12:32:11;;;;;;;14.70;3.58;;;;;;;31.23;73.64;100663.31;5024409;28;70104;-36
2022/05/27 12:34:46;;;;;;;5.63;3.60;;;;;;;31.16;74.19;100657.94;5040387;28;64923;-37
2022/05/27 12:37:24;;;;;;;4.53;3.28;;;;;;;31.21;74.07;100659.16;5069312;27;69961;-37
2022/05/27 12:40:17;;;;;;;13.32;3.97;;;;;;;31.09;73.82;100662.63;5041541;28;65752;-38
2022/05/27 12:42:56;;;;;;;6.88;3.50;;;;;;;31.13;74.28;100671.94;5071607;28;70492;-38
2022/05/27 12:45:52;;;;;;;5.15;3.80;;;;;;;31.02;73.76;100661.88;5050598;28;66392;-39
2022/05/27 12:48:26;;;;;;;7.35;3.33;;;;;;;31.10;73.26;100661.56;5061311;28;69241;-39